sensor_id;sensor_type;location;lat;lon;timestamp;P1;durP1;ratioP1;P2;durP2;ratioP2
59854;SDS011;45732;52.850;6.896;2023-09-19T00:00:23;6.03;;;1.50;;
59854;SDS011;45732;52.850;6.896;2023-09-19T00:02:58;5.75;;;1.40;;
59854;SDS011;45732;52.850;6.896;2023-09-19T00:05:27;7.05;;;1.33;;
59854;SDS011;45732;52.850;6.896;2023-09-19T00:07:55;7.95;;;1.70;;
59854;SDS011;45732;52.850;6.896;2023-09-19T00:10:23;7.22;;;1.83;;
59854;SDS011;45732;52.850;6.896;2023-09-19T00:12:51;5.97;;;1.25;;
59854;SDS011;45732;52.850;6.896;2023-09-19T00:15:22;6.15;;;1.58;;
59854;SDS011;45732;52.850;6.896;2023-09-19T00:17:48;7.65;;;1.52;;
59854;SDS011;45732;52.850;6.896;2023-09-19T00:20:14;8.68;;;1.83;;
59854;SDS011;45732;52.850;6.896;2023-09-19T00:22:43;9.55;;;2.15;;
59854;SDS011;45732;52.850;6.896;2023-09-19T00:25:09;9.25;;;1.88;;
59854;SDS011;45732;52.850;6.896;2023-09-19T00:27:39;7.95;;;1.52;;
59854;SDS011;45732;52.850;6.896;2023-09-19T00:30:08;5.88;;;1.60;;
59854;SDS011;45732;52.850;6.896;2023-09-19T00:32:50;6.80;;;1.80;;
59854;SDS011;45732;52.850;6.896;2023-09-19T00:35:22;5.88;;;1.65;;
59854;SDS011;45732;52.850;6.896;2023-09-19T00:37:51;6.68;;;1.50;;
59854;SDS011;45732;52.850;6.896;2023-09-19T00:40:17;7.85;;;1.70;;
59854;SDS011;45732;52.850;6.896;2023-09-19T00:42:43;5.07;;;1.40;;
59854;SDS011;45732;52.850;6.896;2023-09-19T00:45:14;7.00;;;1.60;;
59854;SDS011;45732;52.850;6.896;2023-09-19T00:47:44;5.53;;;1.35;;
59854;SDS011;45732;52.850;6.896;2023-09-19T00:50:14;3.72;;;1.10;;
59854;SDS011;45732;52.850;6.896;2023-09-19T00:52:46;6.63;;;1.60;;
59854;SDS011;45732;52.850;6.896;2023-09-19T00:55:14;7.03;;;1.77;;
59854;SDS011;45732;52.850;6.896;2023-09-19T00:57:41;7.28;;;1.70;;
59854;SDS011;45732;52.850;6.896;2023-09-19T01:00:09;6.25;;;1.50;;
59854;SDS011;45732;52.850;6.896;2023-09-19T01:02:37;8.02;;;1.60;;
59854;SDS011;45732;52.850;6.896;2023-09-19T01:05:03;5.43;;;1.85;;
59854;SDS011;45732;52.850;6.896;2023-09-19T01:07:31;5.28;;;1.63;;
59854;SDS011;45732;52.850;6.896;2023-09-19T01:09:58;8.48;;;1.90;;
59854;SDS011;45732;52.850;6.896;2023-09-19T01:12:30;8.30;;;1.92;;
59854;SDS011;45732;52.850;6.896;2023-09-19T01:17:57;7.00;;;1.88;;
59854;SDS011;45732;52.850;6.896;2023-09-19T01:31:19;12.35;;;2.47;;
59854;SDS011;45732;52.850;6.896;2023-09-19T01:33:56;9.25;;;1.90;;
59854;SDS011;45732;52.850;6.896;2023-09-19T01:36:29;11.82;;;2.10;;
59854;SDS011;45732;52.850;6.896;2023-09-19T01:39:02;11.45;;;2.47;;
59854;SDS011;45732;52.850;6.896;2023-09-19T01:41:40;8.98;;;2.08;;
59854;SDS011;45732;52.850;6.896;2023-09-19T01:44:09;7.40;;;2.00;;
59854;SDS011;45732;52.850;6.896;2023-09-19T01:46:40;12.80;;;2.25;;
59854;SDS011;45732;52.850;6.896;2023-09-19T01:54:32;9.43;;;2.28;;
59854;SDS011;45732;52.850;6.896;2023-09-19T01:57:09;9.00;;;2.08;;
59854;SDS011;45732;52.850;6.896;2023-09-19T01:59:52;9.80;;;2.95;;
59854;SDS011;45732;52.850;6.896;2023-09-19T02:02:22;9.52;;;2.78;;
59854;SDS011;45732;52.850;6.896;2023-09-19T02:04:50;8.63;;;2.47;;
59854;SDS011;45732;52.850;6.896;2023-09-19T02:07:16;10.70;;;2.83;;
59854;SDS011;45732;52.850;6.896;2023-09-19T02:09:42;10.57;;;2.85;;
59854;SDS011;45732;52.850;6.896;2023-09-19T02:12:11;10.73;;;2.63;;
59854;SDS011;45732;52.850;6.896;2023-09-19T02:14:36;8.38;;;2.78;;
59854;SDS011;45732;52.850;6.896;2023-09-19T02:17:03;12.18;;;2.47;;
59854;SDS011;45732;52.850;6.896;2023-09-19T02:19:34;11.55;;;2.60;;
59854;SDS011;45732;52.850;6.896;2023-09-19T02:22:00;10.52;;;2.58;;
59854;SDS011;45732;52.850;6.896;2023-09-19T02:24:33;9.55;;;2.60;;
59854;SDS011;45732;52.850;6.896;2023-09-19T02:26:59;9.73;;;2.50;;
59854;SDS011;45732;52.850;6.896;2023-09-19T02:29:28;10.63;;;2.75;;
59854;SDS011;45732;52.850;6.896;2023-09-19T02:31:55;9.23;;;2.47;;
59854;SDS011;45732;52.850;6.896;2023-09-19T02:34:21;9.70;;;2.80;;
59854;SDS011;45732;52.850;6.896;2023-09-19T02:36:47;12.10;;;2.60;;
59854;SDS011;45732;52.850;6.896;2023-09-19T02:39:13;13.85;;;2.70;;
59854;SDS011;45732;52.850;6.896;2023-09-19T02:41:38;10.35;;;2.78;;
59854;SDS011;45732;52.850;6.896;2023-09-19T02:44:05;10.50;;;2.50;;
59854;SDS011;45732;52.850;6.896;2023-09-19T02:46:33;11.52;;;2.60;;
59854;SDS011;45732;52.850;6.896;2023-09-19T02:49:01;12.90;;;2.72;;
59854;SDS011;45732;52.850;6.896;2023-09-19T02:51:28;9.85;;;2.65;;
59854;SDS011;45732;52.850;6.896;2023-09-19T02:53:54;12.32;;;3.28;;
59854;SDS011;45732;52.850;6.896;2023-09-19T02:56:20;13.60;;;2.67;;
59854;SDS011;45732;52.850;6.896;2023-09-19T02:58:45;9.65;;;2.72;;
59854;SDS011;45732;52.850;6.896;2023-09-19T03:01:13;10.90;;;2.65;;
59854;SDS011;45732;52.850;6.896;2023-09-19T03:03:39;11.27;;;2.80;;
59854;SDS011;45732;52.850;6.896;2023-09-19T03:06:06;10.55;;;2.50;;
59854;SDS011;45732;52.850;6.896;2023-09-19T03:08:34;10.82;;;2.58;;
59854;SDS011;45732;52.850;6.896;2023-09-19T03:11:04;10.45;;;2.55;;
59854;SDS011;45732;52.850;6.896;2023-09-19T03:13:31;11.75;;;2.28;;
59854;SDS011;45732;52.850;6.896;2023-09-19T03:15:57;8.85;;;2.35;;
59854;SDS011;45732;52.850;6.896;2023-09-19T03:18:23;7.07;;;2.20;;
59854;SDS011;45732;52.850;6.896;2023-09-19T03:20:55;11.70;;;2.58;;
59854;SDS011;45732;52.850;6.896;2023-09-19T03:23:21;10.02;;;2.47;;
59854;SDS011;45732;52.850;6.896;2023-09-19T03:25:47;9.27;;;2.10;;
59854;SDS011;45732;52.850;6.896;2023-09-19T03:28:13;13.02;;;2.30;;
59854;SDS011;45732;52.850;6.896;2023-09-19T03:30:40;10.23;;;2.40;;
59854;SDS011;45732;52.850;6.896;2023-09-19T03:33:07;8.80;;;2.38;;
59854;SDS011;45732;52.850;6.896;2023-09-19T03:35:33;11.43;;;2.22;;
59854;SDS011;45732;52.850;6.896;2023-09-19T03:37:59;9.77;;;2.10;;
59854;SDS011;45732;52.850;6.896;2023-09-19T03:40:25;10.45;;;2.20;;
59854;SDS011;45732;52.850;6.896;2023-09-19T03:42:51;13.20;;;2.25;;
59854;SDS011;45732;52.850;6.896;2023-09-19T03:45:17;9.20;;;2.30;;
59854;SDS011;45732;52.850;6.896;2023-09-19T03:47:43;7.53;;;2.33;;
59854;SDS011;45732;52.850;6.896;2023-09-19T03:50:10;6.72;;;2.10;;
59854;SDS011;45732;52.850;6.896;2023-09-19T03:52:36;9.30;;;2.03;;
59854;SDS011;45732;52.850;6.896;2023-09-19T03:55:01;9.40;;;2.50;;
59854;SDS011;45732;52.850;6.896;2023-09-19T03:57:29;7.60;;;2.00;;
59854;SDS011;45732;52.850;6.896;2023-09-19T03:59:55;9.50;;;2.30;;
59854;SDS011;45732;52.850;6.896;2023-09-19T04:02:21;7.95;;;2.15;;
59854;SDS011;45732;52.850;6.896;2023-09-19T04:04:50;11.60;;;2.42;;
59854;SDS011;45732;52.850;6.896;2023-09-19T04:07:17;7.15;;;2.10;;
59854;SDS011;45732;52.850;6.896;2023-09-19T04:09:47;9.13;;;2.25;;
59854;SDS011;45732;52.850;6.896;2023-09-19T04:12:14;6.07;;;1.88;;
59854;SDS011;45732;52.850;6.896;2023-09-19T04:14:42;9.65;;;2.47;;
59854;SDS011;45732;52.850;6.896;2023-09-19T04:17:08;11.77;;;3.10;;
59854;SDS011;45732;52.850;6.896;2023-09-19T04:19:34;8.90;;;2.50;;
59854;SDS011;45732;52.850;6.896;2023-09-19T04:22:00;10.48;;;2.67;;
59854;SDS011;45732;52.850;6.896;2023-09-19T04:24:26;11.85;;;2.60;;
59854;SDS011;45732;52.850;6.896;2023-09-19T04:26:52;10.82;;;2.78;;
59854;SDS011;45732;52.850;6.896;2023-09-19T04:29:17;11.25;;;2.53;;
59854;SDS011;45732;52.850;6.896;2023-09-19T04:31:44;11.63;;;2.72;;
59854;SDS011;45732;52.850;6.896;2023-09-19T04:34:11;12.00;;;2.83;;
59854;SDS011;45732;52.850;6.896;2023-09-19T04:36:42;13.77;;;3.38;;
59854;SDS011;45732;52.850;6.896;2023-09-19T04:39:08;12.80;;;2.78;;
59854;SDS011;45732;52.850;6.896;2023-09-19T04:41:36;11.95;;;2.72;;
59854;SDS011;45732;52.850;6.896;2023-09-19T04:44:04;10.20;;;2.72;;
59854;SDS011;45732;52.850;6.896;2023-09-19T04:46:30;11.10;;;3.20;;
59854;SDS011;45732;52.850;6.896;2023-09-19T04:48:56;9.35;;;2.70;;
59854;SDS011;45732;52.850;6.896;2023-09-19T04:51:22;12.88;;;2.72;;
59854;SDS011;45732;52.850;6.896;2023-09-19T04:53:48;12.70;;;2.65;;
59854;SDS011;45732;52.850;6.896;2023-09-19T04:56:14;12.77;;;2.92;;
59854;SDS011;45732;52.850;6.896;2023-09-19T04:58:40;10.98;;;2.85;;
59854;SDS011;45732;52.850;6.896;2023-09-19T05:01:06;13.93;;;3.10;;
59854;SDS011;45732;52.850;6.896;2023-09-19T05:03:36;9.32;;;2.60;;
59854;SDS011;45732;52.850;6.896;2023-09-19T05:06:09;16.75;;;3.30;;
59854;SDS011;45732;52.850;6.896;2023-09-19T05:08:34;10.35;;;2.47;;
59854;SDS011;45732;52.850;6.896;2023-09-19T05:11:03;10.88;;;2.70;;
59854;SDS011;45732;52.850;6.896;2023-09-19T05:13:28;12.40;;;2.90;;
59854;SDS011;45732;52.850;6.896;2023-09-19T05:15:59;12.13;;;2.83;;
59854;SDS011;45732;52.850;6.896;2023-09-19T05:18:27;12.32;;;2.83;;
59854;SDS011;45732;52.850;6.896;2023-09-19T05:20:53;12.27;;;2.58;;
59854;SDS011;45732;52.850;6.896;2023-09-19T05:23:19;15.48;;;3.10;;
59854;SDS011;45732;52.850;6.896;2023-09-19T05:25:46;13.82;;;2.50;;
59854;SDS011;45732;52.850;6.896;2023-09-19T05:28:11;16.35;;;3.42;;
59854;SDS011;45732;52.850;6.896;2023-09-19T05:30:40;16.02;;;2.97;;
59854;SDS011;45732;52.850;6.896;2023-09-19T05:33:08;14.82;;;3.00;;
59854;SDS011;45732;52.850;6.896;2023-09-19T05:35:34;11.02;;;2.55;;
59854;SDS011;45732;52.850;6.896;2023-09-19T05:38:04;10.68;;;3.28;;
59854;SDS011;45732;52.850;6.896;2023-09-19T05:40:33;14.77;;;3.10;;
59854;SDS011;45732;52.850;6.896;2023-09-19T05:43:00;12.70;;;2.75;;
59854;SDS011;45732;52.850;6.896;2023-09-19T05:45:27;12.15;;;2.50;;
59854;SDS011;45732;52.850;6.896;2023-09-19T05:47:53;10.00;;;2.70;;
59854;SDS011;45732;52.850;6.896;2023-09-19T05:50:29;12.15;;;2.75;;
59854;SDS011;45732;52.850;6.896;2023-09-19T05:52:57;13.48;;;2.70;;
59854;SDS011;45732;52.850;6.896;2023-09-19T05:55:23;11.20;;;2.75;;
59854;SDS011;45732;52.850;6.896;2023-09-19T05:57:53;12.10;;;2.58;;
59854;SDS011;45732;52.850;6.896;2023-09-19T06:00:19;11.75;;;2.53;;
59854;SDS011;45732;52.850;6.896;2023-09-19T06:02:50;10.68;;;2.88;;
59854;SDS011;45732;52.850;6.896;2023-09-19T06:05:17;11.20;;;2.78;;
59854;SDS011;45732;52.850;6.896;2023-09-19T06:07:43;11.82;;;2.92;;
59854;SDS011;45732;52.850;6.896;2023-09-19T06:10:09;12.80;;;2.70;;
59854;SDS011;45732;52.850;6.896;2023-09-19T06:12:40;10.05;;;2.58;;
59854;SDS011;45732;52.850;6.896;2023-09-19T06:15:09;10.63;;;2.53;;
59854;SDS011;45732;52.850;6.896;2023-09-19T06:17:40;9.77;;;2.97;;
59854;SDS011;45732;52.850;6.896;2023-09-19T06:20:07;11.93;;;2.70;;
59854;SDS011;45732;52.850;6.896;2023-09-19T06:22:40;14.10;;;2.95;;
59854;SDS011;45732;52.850;6.896;2023-09-19T06:25:07;11.45;;;2.83;;
59854;SDS011;45732;52.850;6.896;2023-09-19T06:27:36;12.15;;;2.65;;
59854;SDS011;45732;52.850;6.896;2023-09-19T06:30:03;12.13;;;2.55;;
59854;SDS011;45732;52.850;6.896;2023-09-19T06:32:29;15.38;;;2.97;;
59854;SDS011;45732;52.850;6.896;2023-09-19T06:34:55;12.20;;;2.85;;
59854;SDS011;45732;52.850;6.896;2023-09-19T06:37:21;11.82;;;2.67;;
59854;SDS011;45732;52.850;6.896;2023-09-19T06:39:47;15.50;;;3.30;;
59854;SDS011;45732;52.850;6.896;2023-09-19T06:42:14;13.70;;;3.00;;
59854;SDS011;45732;52.850;6.896;2023-09-19T06:44:42;11.15;;;2.55;;
59854;SDS011;45732;52.850;6.896;2023-09-19T06:47:08;11.05;;;2.78;;
59854;SDS011;45732;52.850;6.896;2023-09-19T06:49:35;13.27;;;2.95;;
59854;SDS011;45732;52.850;6.896;2023-09-19T06:52:01;11.52;;;2.78;;
59854;SDS011;45732;52.850;6.896;2023-09-19T06:54:28;12.60;;;2.53;;
59854;SDS011;45732;52.850;6.896;2023-09-19T06:56:56;11.43;;;2.58;;
59854;SDS011;45732;52.850;6.896;2023-09-19T06:59:25;11.50;;;2.75;;
59854;SDS011;45732;52.850;6.896;2023-09-19T07:01:50;10.73;;;2.90;;
59854;SDS011;45732;52.850;6.896;2023-09-19T07:04:16;11.00;;;2.58;;
59854;SDS011;45732;52.850;6.896;2023-09-19T07:06:48;10.35;;;2.58;;
59854;SDS011;45732;52.850;6.896;2023-09-19T07:09:15;16.83;;;3.22;;
59854;SDS011;45732;52.850;6.896;2023-09-19T07:11:41;14.48;;;2.45;;
59854;SDS011;45732;52.850;6.896;2023-09-19T07:14:07;13.48;;;2.72;;
59854;SDS011;45732;52.850;6.896;2023-09-19T07:16:36;18.77;;;3.00;;
59854;SDS011;45732;52.850;6.896;2023-09-19T07:19:04;10.48;;;2.53;;
59854;SDS011;45732;52.850;6.896;2023-09-19T07:21:30;14.30;;;3.47;;
59854;SDS011;45732;52.850;6.896;2023-09-19T07:23:59;10.02;;;2.50;;
59854;SDS011;45732;52.850;6.896;2023-09-19T07:26:25;9.90;;;2.72;;
59854;SDS011;45732;52.850;6.896;2023-09-19T07:28:53;10.65;;;2.70;;
59854;SDS011;45732;52.850;6.896;2023-09-19T07:31:19;12.32;;;2.65;;
59854;SDS011;45732;52.850;6.896;2023-09-19T07:33:44;12.10;;;2.65;;
59854;SDS011;45732;52.850;6.896;2023-09-19T07:36:10;10.15;;;2.40;;
59854;SDS011;45732;52.850;6.896;2023-09-19T07:38:39;10.05;;;2.60;;
59854;SDS011;45732;52.850;6.896;2023-09-19T07:41:05;12.30;;;2.85;;
59854;SDS011;45732;52.850;6.896;2023-09-19T07:43:32;12.32;;;3.00;;
59854;SDS011;45732;52.850;6.896;2023-09-19T07:46:02;12.23;;;3.10;;
59854;SDS011;45732;52.850;6.896;2023-09-19T07:48:29;9.43;;;2.58;;
59854;SDS011;45732;52.850;6.896;2023-09-19T07:50:54;12.70;;;2.95;;
59854;SDS011;45732;52.850;6.896;2023-09-19T07:53:20;12.02;;;2.35;;
59854;SDS011;45732;52.850;6.896;2023-09-19T07:55:47;14.88;;;2.95;;
59854;SDS011;45732;52.850;6.896;2023-09-19T07:58:13;12.45;;;2.83;;
59854;SDS011;45732;52.850;6.896;2023-09-19T08:00:41;13.25;;;2.70;;
59854;SDS011;45732;52.850;6.896;2023-09-19T08:03:06;13.95;;;2.70;;
59854;SDS011;45732;52.850;6.896;2023-09-19T08:05:34;11.95;;;2.72;;
59854;SDS011;45732;52.850;6.896;2023-09-19T08:07:59;13.85;;;3.03;;
59854;SDS011;45732;52.850;6.896;2023-09-19T08:10:27;12.38;;;3.20;;
59854;SDS011;45732;52.850;6.896;2023-09-19T08:13:00;13.63;;;2.67;;
59854;SDS011;45732;52.850;6.896;2023-09-19T08:15:27;13.90;;;3.13;;
59854;SDS011;45732;52.850;6.896;2023-09-19T08:17:53;12.77;;;2.70;;
59854;SDS011;45732;52.850;6.896;2023-09-19T08:20:18;11.27;;;2.72;;
59854;SDS011;45732;52.850;6.896;2023-09-19T08:22:51;15.75;;;3.38;;
59854;SDS011;45732;52.850;6.896;2023-09-19T08:25:20;11.82;;;2.78;;
59854;SDS011;45732;52.850;6.896;2023-09-19T08:27:47;13.23;;;3.40;;
59854;SDS011;45732;52.850;6.896;2023-09-19T08:30:23;12.60;;;2.78;;
59854;SDS011;45732;52.850;6.896;2023-09-19T08:33:01;12.88;;;3.05;;
59854;SDS011;45732;52.850;6.896;2023-09-19T08:35:29;13.48;;;2.92;;
59854;SDS011;45732;52.850;6.896;2023-09-19T08:37:55;12.77;;;2.78;;
59854;SDS011;45732;52.850;6.896;2023-09-19T08:40:21;12.20;;;3.00;;
59854;SDS011;45732;52.850;6.896;2023-09-19T08:42:48;11.70;;;3.05;;
59854;SDS011;45732;52.850;6.896;2023-09-19T08:45:19;10.82;;;2.63;;
59854;SDS011;45732;52.850;6.896;2023-09-19T08:50:43;12.68;;;2.97;;
59854;SDS011;45732;52.850;6.896;2023-09-19T08:53:26;12.63;;;2.60;;
59854;SDS011;45732;52.850;6.896;2023-09-19T08:55:57;11.73;;;2.83;;
59854;SDS011;45732;52.850;6.896;2023-09-19T08:58:28;13.15;;;3.15;;
59854;SDS011;45732;52.850;6.896;2023-09-19T09:01:06;13.95;;;3.38;;
59854;SDS011;45732;52.850;6.896;2023-09-19T09:03:32;13.82;;;2.70;;
59854;SDS011;45732;52.850;6.896;2023-09-19T09:06:00;14.07;;;3.72;;
59854;SDS011;45732;52.850;6.896;2023-09-19T09:08:26;13.55;;;2.63;;
59854;SDS011;45732;52.850;6.896;2023-09-19T09:10:55;13.38;;;2.88;;
59854;SDS011;45732;52.850;6.896;2023-09-19T09:13:22;17.23;;;3.22;;
59854;SDS011;45732;52.850;6.896;2023-09-19T09:15:51;12.23;;;3.03;;
59854;SDS011;45732;52.850;6.896;2023-09-19T09:18:18;10.73;;;2.83;;
59854;SDS011;45732;52.850;6.896;2023-09-19T09:20:43;13.38;;;3.05;;
59854;SDS011;45732;52.850;6.896;2023-09-19T09:23:10;11.98;;;3.58;;
59854;SDS011;45732;52.850;6.896;2023-09-19T09:25:54;12.60;;;3.30;;
59854;SDS011;45732;52.850;6.896;2023-09-19T09:28:24;16.83;;;3.13;;
59854;SDS011;45732;52.850;6.896;2023-09-19T09:30:53;10.45;;;3.20;;
59854;SDS011;45732;52.850;6.896;2023-09-19T09:33:19;18.20;;;3.72;;
59854;SDS011;45732;52.850;6.896;2023-09-19T09:35:53;10.73;;;3.15;;
59854;SDS011;45732;52.850;6.896;2023-09-19T09:38:22;13.10;;;2.90;;
59854;SDS011;45732;52.850;6.896;2023-09-19T09:40:56;14.13;;;3.27;;
59854;SDS011;45732;52.850;6.896;2023-09-19T09:43:38;11.07;;;3.00;;
59854;SDS011;45732;52.850;6.896;2023-09-19T09:46:15;15.52;;;2.97;;
59854;SDS011;45732;52.850;6.896;2023-09-19T09:48:58;12.52;;;2.60;;
59854;SDS011;45732;52.850;6.896;2023-09-19T09:52:04;14.10;;;2.97;;
59854;SDS011;45732;52.850;6.896;2023-09-19T09:54:41;13.13;;;3.03;;
59854;SDS011;45732;52.850;6.896;2023-09-19T09:57:31;11.40;;;2.80;;
59854;SDS011;45732;52.850;6.896;2023-09-19T09:59:59;15.60;;;3.25;;
59854;SDS011;45732;52.850;6.896;2023-09-19T10:02:41;12.02;;;2.58;;
59854;SDS011;45732;52.850;6.896;2023-09-19T10:05:13;11.30;;;2.83;;
59854;SDS011;45732;52.850;6.896;2023-09-19T10:07:50;13.63;;;2.92;;
59854;SDS011;45732;52.850;6.896;2023-09-19T10:10:37;13.23;;;3.22;;
59854;SDS011;45732;52.850;6.896;2023-09-19T10:13:06;12.55;;;2.50;;
59854;SDS011;45732;52.850;6.896;2023-09-19T10:15:37;14.30;;;3.03;;
59854;SDS011;45732;52.850;6.896;2023-09-19T10:18:06;14.15;;;3.17;;
59854;SDS011;45732;52.850;6.896;2023-09-19T10:23:07;12.55;;;3.00;;
59854;SDS011;45732;52.850;6.896;2023-09-19T10:25:36;9.55;;;2.83;;
59854;SDS011;45732;52.850;6.896;2023-09-19T10:28:05;12.48;;;3.20;;
59854;SDS011;45732;52.850;6.896;2023-09-19T10:30:45;12.37;;;2.50;;
59854;SDS011;45732;52.850;6.896;2023-09-19T10:33:14;16.10;;;3.53;;
59854;SDS011;45732;52.850;6.896;2023-09-19T10:35:50;13.48;;;2.97;;
59854;SDS011;45732;52.850;6.896;2023-09-19T10:38:19;10.43;;;2.85;;
59854;SDS011;45732;52.850;6.896;2023-09-19T10:40:49;11.65;;;3.13;;
59854;SDS011;45732;52.850;6.896;2023-09-19T10:43:16;11.68;;;2.95;;
59854;SDS011;45732;52.850;6.896;2023-09-19T10:45:44;12.82;;;3.10;;
59854;SDS011;45732;52.850;6.896;2023-09-19T10:48:18;11.45;;;3.00;;
59854;SDS011;45732;52.850;6.896;2023-09-19T10:50:56;14.52;;;3.22;;
59854;SDS011;45732;52.850;6.896;2023-09-19T10:53:41;14.70;;;3.10;;
59854;SDS011;45732;52.850;6.896;2023-09-19T10:56:27;13.43;;;3.40;;
59854;SDS011;45732;52.850;6.896;2023-09-19T10:59:05;13.50;;;2.70;;
59854;SDS011;45732;52.850;6.896;2023-09-19T11:01:42;15.30;;;3.00;;
59854;SDS011;45732;52.850;6.896;2023-09-19T11:04:31;9.50;;;2.38;;
59854;SDS011;45732;52.850;6.896;2023-09-19T11:09:43;13.05;;;3.00;;
59854;SDS011;45732;52.850;6.896;2023-09-19T11:15:06;13.63;;;2.50;;
59854;SDS011;45732;52.850;6.896;2023-09-19T11:17:42;11.70;;;2.55;;
59854;SDS011;45732;52.850;6.896;2023-09-19T11:30:44;11.93;;;3.08;;
59854;SDS011;45732;52.850;6.896;2023-09-19T11:36:08;10.35;;;2.53;;
59854;SDS011;45732;52.850;6.896;2023-09-19T11:39:01;11.02;;;2.60;;
59854;SDS011;45732;52.850;6.896;2023-09-19T11:41:36;10.60;;;2.28;;
59854;SDS011;45732;52.850;6.896;2023-09-19T11:46:34;13.35;;;2.67;;
59854;SDS011;45732;52.850;6.896;2023-09-19T11:49:28;9.95;;;2.42;;
59854;SDS011;45732;52.850;6.896;2023-09-19T11:51:57;11.65;;;2.85;;
59854;SDS011;45732;52.850;6.896;2023-09-19T11:54:26;13.75;;;2.88;;
59854;SDS011;45732;52.850;6.896;2023-09-19T11:56:57;10.63;;;2.75;;
59854;SDS011;45732;52.850;6.896;2023-09-19T11:59:24;15.13;;;2.30;;
59854;SDS011;45732;52.850;6.896;2023-09-19T12:01:58;10.18;;;2.40;;
59854;SDS011;45732;52.850;6.896;2023-09-19T12:04:38;10.25;;;2.20;;
59854;SDS011;45732;52.850;6.896;2023-09-19T12:09:39;9.40;;;2.20;;
59854;SDS011;45732;52.850;6.896;2023-09-19T12:12:11;10.95;;;2.70;;
59854;SDS011;45732;52.850;6.896;2023-09-19T12:14:51;10.45;;;2.70;;
59854;SDS011;45732;52.850;6.896;2023-09-19T12:17:17;12.82;;;2.72;;
59854;SDS011;45732;52.850;6.896;2023-09-19T12:19:56;11.32;;;2.70;;
59854;SDS011;45732;52.850;6.896;2023-09-19T12:22:22;13.18;;;2.97;;
59854;SDS011;45732;52.850;6.896;2023-09-19T12:24:48;10.77;;;2.30;;
59854;SDS011;45732;52.850;6.896;2023-09-19T12:27:15;9.65;;;2.50;;
59854;SDS011;45732;52.850;6.896;2023-09-19T12:29:42;10.77;;;2.40;;
59854;SDS011;45732;52.850;6.896;2023-09-19T12:32:08;11.70;;;2.35;;
59854;SDS011;45732;52.850;6.896;2023-09-19T12:34:34;13.02;;;2.67;;
59854;SDS011;45732;52.850;6.896;2023-09-19T12:39:43;10.35;;;2.40;;
59854;SDS011;45732;52.850;6.896;2023-09-19T12:42:22;11.60;;;2.17;;
59854;SDS011;45732;52.850;6.896;2023-09-19T12:44:54;13.65;;;2.65;;
59854;SDS011;45732;52.850;6.896;2023-09-19T12:47:22;11.43;;;2.47;;
59854;SDS011;45732;52.850;6.896;2023-09-19T12:50:05;10.75;;;2.72;;
59854;SDS011;45732;52.850;6.896;2023-09-19T12:52:37;9.40;;;2.03;;
59854;SDS011;45732;52.850;6.896;2023-09-19T12:55:05;12.55;;;2.58;;
59854;SDS011;45732;52.850;6.896;2023-09-19T12:57:36;9.65;;;2.33;;
59854;SDS011;45732;52.850;6.896;2023-09-19T13:00:02;12.48;;;2.30;;
59854;SDS011;45732;52.850;6.896;2023-09-19T13:02:31;11.02;;;2.38;;
59854;SDS011;45732;52.850;6.896;2023-09-19T13:04:57;11.07;;;2.35;;
59854;SDS011;45732;52.850;6.896;2023-09-19T13:07:45;11.85;;;2.70;;
59854;SDS011;45732;52.850;6.896;2023-09-19T13:10:12;11.43;;;2.75;;
59854;SDS011;45732;52.850;6.896;2023-09-19T13:12:42;9.65;;;2.45;;
59854;SDS011;45732;52.850;6.896;2023-09-19T13:15:13;12.40;;;2.67;;
59854;SDS011;45732;52.850;6.896;2023-09-19T13:17:45;13.40;;;2.28;;
59854;SDS011;45732;52.850;6.896;2023-09-19T13:20:26;10.52;;;2.72;;
59854;SDS011;45732;52.850;6.896;2023-09-19T13:22:53;11.35;;;2.33;;
59854;SDS011;45732;52.850;6.896;2023-09-19T13:25:24;9.40;;;2.08;;
59854;SDS011;45732;52.850;6.896;2023-09-19T13:27:53;8.80;;;2.33;;
59854;SDS011;45732;52.850;6.896;2023-09-19T13:30:24;10.40;;;2.00;;
59854;SDS011;45732;52.850;6.896;2023-09-19T13:33:05;9.73;;;2.10;;
59854;SDS011;45732;52.850;6.896;2023-09-19T13:35:35;12.32;;;3.03;;
59854;SDS011;45732;52.850;6.896;2023-09-19T13:38:07;13.75;;;2.53;;
59854;SDS011;45732;52.850;6.896;2023-09-19T13:40:36;11.45;;;2.33;;
59854;SDS011;45732;52.850;6.896;2023-09-19T13:43:06;9.02;;;1.95;;
59854;SDS011;45732;52.850;6.896;2023-09-19T13:45:33;8.50;;;2.20;;
59854;SDS011;45732;52.850;6.896;2023-09-19T13:47:59;8.27;;;2.13;;
59854;SDS011;45732;52.850;6.896;2023-09-19T13:50:25;7.75;;;1.90;;
59854;SDS011;45732;52.850;6.896;2023-09-19T13:52:54;10.07;;;2.05;;
59854;SDS011;45732;52.850;6.896;2023-09-19T13:55:20;9.75;;;2.25;;
59854;SDS011;45732;52.850;6.896;2023-09-19T13:57:46;9.20;;;2.17;;
59854;SDS011;45732;52.850;6.896;2023-09-19T14:00:15;9.55;;;2.00;;
59854;SDS011;45732;52.850;6.896;2023-09-19T14:02:41;8.45;;;2.08;;
59854;SDS011;45732;52.850;6.896;2023-09-19T14:05:11;6.57;;;1.63;;
59854;SDS011;45732;52.850;6.896;2023-09-19T14:07:44;7.63;;;1.90;;
59854;SDS011;45732;52.850;6.896;2023-09-19T14:10:13;10.05;;;2.03;;
59854;SDS011;45732;52.850;6.896;2023-09-19T14:12:39;9.15;;;1.92;;
59854;SDS011;45732;52.850;6.896;2023-09-19T14:15:10;7.70;;;1.70;;
59854;SDS011;45732;52.850;6.896;2023-09-19T14:17:36;9.57;;;2.08;;
59854;SDS011;45732;52.850;6.896;2023-09-19T14:20:02;9.27;;;1.75;;
59854;SDS011;45732;52.850;6.896;2023-09-19T14:22:30;8.65;;;1.95;;
59854;SDS011;45732;52.850;6.896;2023-09-19T14:24:56;8.32;;;1.70;;
59854;SDS011;45732;52.850;6.896;2023-09-19T14:27:22;11.80;;;1.80;;
59854;SDS011;45732;52.850;6.896;2023-09-19T14:29:47;8.45;;;1.65;;
59854;SDS011;45732;52.850;6.896;2023-09-19T14:32:13;8.88;;;1.90;;
59854;SDS011;45732;52.850;6.896;2023-09-19T14:34:39;6.22;;;1.40;;
59854;SDS011;45732;52.850;6.896;2023-09-19T14:37:08;9.48;;;1.80;;
59854;SDS011;45732;52.850;6.896;2023-09-19T14:39:34;9.25;;;1.60;;
59854;SDS011;45732;52.850;6.896;2023-09-19T14:41:59;11.10;;;2.10;;
59854;SDS011;45732;52.850;6.896;2023-09-19T14:44:25;7.20;;;1.83;;
59854;SDS011;45732;52.850;6.896;2023-09-19T14:46:51;7.30;;;2.15;;
59854;SDS011;45732;52.850;6.896;2023-09-19T14:49:16;5.18;;;1.35;;
59854;SDS011;45732;52.850;6.896;2023-09-19T14:51:42;8.10;;;2.10;;
59854;SDS011;45732;52.850;6.896;2023-09-19T14:54:09;6.55;;;1.40;;
59854;SDS011;45732;52.850;6.896;2023-09-19T14:56:35;7.57;;;1.48;;
59854;SDS011;45732;52.850;6.896;2023-09-19T14:59:01;7.70;;;1.60;;
59854;SDS011;45732;52.850;6.896;2023-09-19T15:01:27;6.30;;;1.35;;
59854;SDS011;45732;52.850;6.896;2023-09-19T15:03:53;8.68;;;1.67;;
59854;SDS011;45732;52.850;6.896;2023-09-19T15:06:20;8.30;;;1.60;;
59854;SDS011;45732;52.850;6.896;2023-09-19T15:08:47;9.68;;;1.80;;
59854;SDS011;45732;52.850;6.896;2023-09-19T15:11:13;7.57;;;1.35;;
59854;SDS011;45732;52.850;6.896;2023-09-19T15:13:41;5.45;;;1.35;;
59854;SDS011;45732;52.850;6.896;2023-09-19T15:16:08;6.72;;;1.48;;
59854;SDS011;45732;52.850;6.896;2023-09-19T15:18:35;5.03;;;1.20;;
59854;SDS011;45732;52.850;6.896;2023-09-19T15:21:09;6.72;;;1.55;;
59854;SDS011;45732;52.850;6.896;2023-09-19T15:23:36;5.55;;;1.50;;
59854;SDS011;45732;52.850;6.896;2023-09-19T15:26:03;7.53;;;1.70;;
59854;SDS011;45732;52.850;6.896;2023-09-19T15:28:30;5.32;;;1.45;;
59854;SDS011;45732;52.850;6.896;2023-09-19T15:31:00;7.38;;;1.45;;
59854;SDS011;45732;52.850;6.896;2023-09-19T15:33:26;5.20;;;1.25;;
59854;SDS011;45732;52.850;6.896;2023-09-19T15:36:00;6.80;;;1.50;;
59854;SDS011;45732;52.850;6.896;2023-09-19T15:41:35;6.90;;;1.88;;
59854;SDS011;45732;52.850;6.896;2023-09-19T15:44:02;6.60;;;1.60;;